sensor_id;sensor_type;location;lat;lon;timestamp;temperature;humidity
76470;DHT22;65305;52.870;13.660;2022-12-11T00:01:44;9.20;49.80
76470;DHT22;65305;52.870;13.660;2022-12-11T00:04:11;9.20;49.70
76470;DHT22;65305;52.870;13.660;2022-12-11T00:06:37;9.20;49.90
76470;DHT22;65305;52.870;13.660;2022-12-11T00:09:04;9.20;49.80
76470;DHT22;65305;52.870;13.660;2022-12-11T00:11:30;9.20;49.80
76470;DHT22;65305;52.870;13.660;2022-12-11T00:13:57;9.20;49.80
76470;DHT22;65305;52.870;13.660;2022-12-11T00:16:23;9.20;49.80
76470;DHT22;65305;52.870;13.660;2022-12-11T00:18:50;9.20;49.90
76470;DHT22;65305;52.870;13.660;2022-12-11T00:21:16;9.20;49.80
76470;DHT22;65305;52.870;13.660;2022-12-11T00:23:43;9.20;49.90
76470;DHT22;65305;52.870;13.660;2022-12-11T00:26:12;9.20;49.80
76470;DHT22;65305;52.870;13.660;2022-12-11T00:28:39;9.20;49.80
76470;DHT22;65305;52.870;13.660;2022-12-11T00:31:07;9.20;49.80
76470;DHT22;65305;52.870;13.660;2022-12-11T00:33:34;9.20;49.80
76470;DHT22;65305;52.870;13.660;2022-12-11T00:36:00;9.20;49.80
76470;DHT22;65305;52.870;13.660;2022-12-11T00:38:27;9.20;49.80
76470;DHT22;65305;52.870;13.660;2022-12-11T00:40:57;9.20;49.80
76470;DHT22;65305;52.870;13.660;2022-12-11T00:43:24;9.20;49.70
76470;DHT22;65305;52.870;13.660;2022-12-11T00:45:50;9.20;49.80
76470;DHT22;65305;52.870;13.660;2022-12-11T00:48:17;9.20;49.80
76470;DHT22;65305;52.870;13.660;2022-12-11T00:50:43;9.20;49.80
76470;DHT22;65305;52.870;13.660;2022-12-11T00:53:10;9.20;49.80
76470;DHT22;65305;52.870;13.660;2022-12-11T00:55:37;9.20;49.80
76470;DHT22;65305;52.870;13.660;2022-12-11T00:58:04;9.20;49.80
76470;DHT22;65305;52.870;13.660;2022-12-11T01:00:30;9.20;49.80
76470;DHT22;65305;52.870;13.660;2022-12-11T01:02:57;9.20;49.70
76470;DHT22;65305;52.870;13.660;2022-12-11T01:05:23;9.20;49.80
76470;DHT22;65305;52.870;13.660;2022-12-11T01:07:50;9.20;49.70
76470;DHT22;65305;52.870;13.660;2022-12-11T01:10:16;9.20;49.70
76470;DHT22;65305;52.870;13.660;2022-12-11T01:12:56;9.20;49.80
76470;DHT22;65305;52.870;13.660;2022-12-11T01:15:25;9.20;49.80
76470;DHT22;65305;52.870;13.660;2022-12-11T01:17:52;9.20;49.70
76470;DHT22;65305;52.870;13.660;2022-12-11T01:20:19;9.20;49.80
76470;DHT22;65305;52.870;13.660;2022-12-11T01:22:46;9.20;49.70
76470;DHT22;65305;52.870;13.660;2022-12-11T01:25:12;9.20;49.80
76470;DHT22;65305;52.870;13.660;2022-12-11T01:27:39;9.20;49.80
76470;DHT22;65305;52.870;13.660;2022-12-11T01:30:06;9.20;49.80
76470;DHT22;65305;52.870;13.660;2022-12-11T01:32:33;9.20;49.70
76470;DHT22;65305;52.870;13.660;2022-12-11T01:35:01;9.20;49.70
76470;DHT22;65305;52.870;13.660;2022-12-11T01:37:28;9.20;49.90
76470;DHT22;65305;52.870;13.660;2022-12-11T01:39:55;9.20;49.70
76470;DHT22;65305;52.870;13.660;2022-12-11T01:42:22;9.20;49.70
76470;DHT22;65305;52.870;13.660;2022-12-11T01:47:16;9.20;49.70
76470;DHT22;65305;52.870;13.660;2022-12-11T01:49:42;9.20;49.80
76470;DHT22;65305;52.870;13.660;2022-12-11T01:52:18;9.20;49.70
76470;DHT22;65305;52.870;13.660;2022-12-11T01:54:47;9.20;49.80
76470;DHT22;65305;52.870;13.660;2022-12-11T01:57:14;9.20;49.70
76470;DHT22;65305;52.870;13.660;2022-12-11T01:59:42;9.30;49.70
76470;DHT22;65305;52.870;13.660;2022-12-11T02:02:18;9.20;49.70
76470;DHT22;65305;52.870;13.660;2022-12-11T02:04:46;9.20;49.70
76470;DHT22;65305;52.870;13.660;2022-12-11T02:07:13;9.20;49.70
76470;DHT22;65305;52.870;13.660;2022-12-11T02:09:40;9.20;49.70
76470;DHT22;65305;52.870;13.660;2022-12-11T02:17:03;9.30;49.60
76470;DHT22;65305;52.870;13.660;2022-12-11T02:19:38;9.30;49.70
76470;DHT22;65305;52.870;13.660;2022-12-11T02:22:12;9.20;49.60
76470;DHT22;65305;52.870;13.660;2022-12-11T02:24:59;9.30;49.70
76470;DHT22;65305;52.870;13.660;2022-12-11T02:27:35;9.20;49.70
76470;DHT22;65305;52.870;13.660;2022-12-11T02:32:37;9.30;49.60
76470;DHT22;65305;52.870;13.660;2022-12-11T02:35:08;9.20;49.60
76470;DHT22;65305;52.870;13.660;2022-12-11T02:37:37;9.20;49.70
76470;DHT22;65305;52.870;13.660;2022-12-11T02:40:08;9.30;49.70
76470;DHT22;65305;52.870;13.660;2022-12-11T02:42:36;9.30;49.60
76470;DHT22;65305;52.870;13.660;2022-12-11T02:45:03;9.30;49.60
76470;DHT22;65305;52.870;13.660;2022-12-11T02:47:30;9.30;49.70
76470;DHT22;65305;52.870;13.660;2022-12-11T02:49:57;9.20;49.60
76470;DHT22;65305;52.870;13.660;2022-12-11T02:52:25;9.30;49.60
76470;DHT22;65305;52.870;13.660;2022-12-11T02:54:53;9.30;49.70
76470;DHT22;65305;52.870;13.660;2022-12-11T02:57:30;9.30;49.60
76470;DHT22;65305;52.870;13.660;2022-12-11T02:59:59;9.30;49.60
76470;DHT22;65305;52.870;13.660;2022-12-11T03:02:26;9.30;49.70
76470;DHT22;65305;52.870;13.660;2022-12-11T03:04:52;9.30;49.60
76470;DHT22;65305;52.870;13.660;2022-12-11T03:07:20;9.30;49.60
76470;DHT22;65305;52.870;13.660;2022-12-11T03:09:49;9.30;49.70
76470;DHT22;65305;52.870;13.660;2022-12-11T03:12:17;9.30;49.70
76470;DHT22;65305;52.870;13.660;2022-12-11T03:14:45;9.30;49.60
76470;DHT22;65305;52.870;13.660;2022-12-11T03:17:14;9.40;49.70
76470;DHT22;65305;52.870;13.660;2022-12-11T03:19:54;9.40;49.60
76470;DHT22;65305;52.870;13.660;2022-12-11T03:22:25;9.30;49.60
76470;DHT22;65305;52.870;13.660;2022-12-11T03:24:59;9.30;49.60
76470;DHT22;65305;52.870;13.660;2022-12-11T03:27:32;9.30;49.70
76470;DHT22;65305;52.870;13.660;2022-12-11T03:30:07;9.30;49.70
76470;DHT22;65305;52.870;13.660;2022-12-11T03:32:38;9.30;49.60
76470;DHT22;65305;52.870;13.660;2022-12-11T03:35:14;9.40;49.70
76470;DHT22;65305;52.870;13.660;2022-12-11T03:37:43;9.30;49.60
76470;DHT22;65305;52.870;13.660;2022-12-11T03:40:12;9.30;49.70
76470;DHT22;65305;52.870;13.660;2022-12-11T03:42:41;9.40;49.80
76470;DHT22;65305;52.870;13.660;2022-12-11T03:45:09;9.30;49.70
76470;DHT22;65305;52.870;13.660;2022-12-11T03:47:36;9.30;49.70
76470;DHT22;65305;52.870;13.660;2022-12-11T03:50:05;9.30;49.70
76470;DHT22;65305;52.870;13.660;2022-12-11T03:52:33;9.30;49.70
76470;DHT22;65305;52.870;13.660;2022-12-11T03:55:02;9.30;49.70
76470;DHT22;65305;52.870;13.660;2022-12-11T03:57:31;9.30;49.70
76470;DHT22;65305;52.870;13.660;2022-12-11T04:00:00;9.30;49.70
76470;DHT22;65305;52.870;13.660;2022-12-11T04:02:30;9.30;49.70
76470;DHT22;65305;52.870;13.660;2022-12-11T04:04:56;9.40;49.60
76470;DHT22;65305;52.870;13.660;2022-12-11T04:07:23;9.30;49.60
76470;DHT22;65305;52.870;13.660;2022-12-11T04:09:49;9.40;49.70
76470;DHT22;65305;52.870;13.660;2022-12-11T04:12:16;9.30;49.60
76470;DHT22;65305;52.870;13.660;2022-12-11T04:14:42;9.40;49.70
76470;DHT22;65305;52.870;13.660;2022-12-11T04:17:27;9.40;49.70
76470;DHT22;65305;52.870;13.660;2022-12-11T04:20:12;9.40;49.60
76470;DHT22;65305;52.870;13.660;2022-12-11T04:22:57;9.30;49.60
76470;DHT22;65305;52.870;13.660;2022-12-11T04:25:41;9.30;49.60
76470;DHT22;65305;52.870;13.660;2022-12-11T04:28:08;9.30;49.70
76470;DHT22;65305;52.870;13.660;2022-12-11T04:30:34;9.30;49.60
76470;DHT22;65305;52.870;13.660;2022-12-11T04:33:01;9.30;49.70
76470;DHT22;65305;52.870;13.660;2022-12-11T04:35:27;9.30;49.60
76470;DHT22;65305;52.870;13.660;2022-12-11T04:37:54;9.30;49.60
76470;DHT22;65305;52.870;13.660;2022-12-11T04:40:20;9.40;49.60
76470;DHT22;65305;52.870;13.660;2022-12-11T04:42:47;9.40;49.60
76470;DHT22;65305;52.870;13.660;2022-12-11T04:45:14;9.40;49.60
76470;DHT22;65305;52.870;13.660;2022-12-11T04:47:40;9.30;49.60
76470;DHT22;65305;52.870;13.660;2022-12-11T04:50:08;9.30;49.60
76470;DHT22;65305;52.870;13.660;2022-12-11T04:52:34;9.30;49.60
76470;DHT22;65305;52.870;13.660;2022-12-11T04:55:02;9.30;49.60
76470;DHT22;65305;52.870;13.660;2022-12-11T04:57:29;9.30;49.60
76470;DHT22;65305;52.870;13.660;2022-12-11T04:59:55;9.30;49.60
76470;DHT22;65305;52.870;13.660;2022-12-11T05:02:22;9.40;49.60
76470;DHT22;65305;52.870;13.660;2022-12-11T05:04:48;9.40;49.50
76470;DHT22;65305;52.870;13.660;2022-12-11T05:07:14;9.30;49.50
76470;DHT22;65305;52.870;13.660;2022-12-11T05:09:41;9.30;49.60
76470;DHT22;65305;52.870;13.660;2022-12-11T05:12:07;9.40;49.60
76470;DHT22;65305;52.870;13.660;2022-12-11T05:14:34;9.40;49.70
76470;DHT22;65305;52.870;13.660;2022-12-11T05:17:00;9.40;49.60
76470;DHT22;65305;52.870;13.660;2022-12-11T05:19:27;9.40;49.60
76470;DHT22;65305;52.870;13.660;2022-12-11T05:21:53;9.40;49.50
76470;DHT22;65305;52.870;13.660;2022-12-11T05:24:20;9.40;49.60
76470;DHT22;65305;52.870;13.660;2022-12-11T05:26:46;9.40;49.50
76470;DHT22;65305;52.870;13.660;2022-12-11T05:29:13;9.40;49.50
76470;DHT22;65305;52.870;13.660;2022-12-11T05:31:39;9.30;49.50
76470;DHT22;65305;52.870;13.660;2022-12-11T05:34:06;9.40;49.50
76470;DHT22;65305;52.870;13.660;2022-12-11T05:36:33;9.40;49.50
76470;DHT22;65305;52.870;13.660;2022-12-11T05:39:00;9.40;49.50
76470;DHT22;65305;52.870;13.660;2022-12-11T05:41:27;9.40;49.50
76470;DHT22;65305;52.870;13.660;2022-12-11T05:43:54;9.40;49.50
76470;DHT22;65305;52.870;13.660;2022-12-11T05:46:22;9.40;49.40
76470;DHT22;65305;52.870;13.660;2022-12-11T05:48:49;9.40;49.50
76470;DHT22;65305;52.870;13.660;2022-12-11T05:51:16;9.40;49.40
76470;DHT22;65305;52.870;13.660;2022-12-11T05:53:43;9.40;49.50
76470;DHT22;65305;52.870;13.660;2022-12-11T05:56:13;9.40;49.60
76470;DHT22;65305;52.870;13.660;2022-12-11T05:58:40;9.40;49.50
76470;DHT22;65305;52.870;13.660;2022-12-11T06:01:14;9.40;49.40
76470;DHT22;65305;52.870;13.660;2022-12-11T06:03:42;9.30;49.50
76470;DHT22;65305;52.870;13.660;2022-12-11T06:06:09;9.30;49.50
76470;DHT22;65305;52.870;13.660;2022-12-11T06:08:36;9.40;49.50
76470;DHT22;65305;52.870;13.660;2022-12-11T06:11:02;9.40;49.60
76470;DHT22;65305;52.870;13.660;2022-12-11T06:13:29;9.40;49.50
76470;DHT22;65305;52.870;13.660;2022-12-11T06:16:05;9.30;49.40
76470;DHT22;65305;52.870;13.660;2022-12-11T06:18:36;9.40;49.40
76470;DHT22;65305;52.870;13.660;2022-12-11T06:21:09;9.30;49.50
76470;DHT22;65305;52.870;13.660;2022-12-11T06:23:37;9.30;49.50
76470;DHT22;65305;52.870;13.660;2022-12-11T06:26:03;9.30;49.50
76470;DHT22;65305;52.870;13.660;2022-12-11T06:28:30;9.30;49.50
76470;DHT22;65305;52.870;13.660;2022-12-11T06:31:00;9.40;49.50
76470;DHT22;65305;52.870;13.660;2022-12-11T06:33:26;9.40;49.50
76470;DHT22;65305;52.870;13.660;2022-12-11T06:35:53;9.40;49.50
76470;DHT22;65305;52.870;13.660;2022-12-11T06:38:19;9.40;49.40
76470;DHT22;65305;52.870;13.660;2022-12-11T06:40:46;9.30;49.50
76470;DHT22;65305;52.870;13.660;2022-12-11T06:43:19;9.30;49.50
76470;DHT22;65305;52.870;13.660;2022-12-11T06:45:46;9.40;49.50
76470;DHT22;65305;52.870;13.660;2022-12-11T06:48:13;9.40;49.60
76470;DHT22;65305;52.870;13.660;2022-12-11T06:50:39;9.40;49.50
76470;DHT22;65305;52.870;13.660;2022-12-11T06:53:05;9.40;49.40
76470;DHT22;65305;52.870;13.660;2022-12-11T06:55:35;9.40;49.40
76470;DHT22;65305;52.870;13.660;2022-12-11T06:58:02;9.40;49.40
76470;DHT22;65305;52.870;13.660;2022-12-11T07:00:28;9.40;49.40
76470;DHT22;65305;52.870;13.660;2022-12-11T07:02:55;9.40;49.50
76470;DHT22;65305;52.870;13.660;2022-12-11T07:05:21;9.40;49.50
76470;DHT22;65305;52.870;13.660;2022-12-11T07:07:48;9.40;49.40
76470;DHT22;65305;52.870;13.660;2022-12-11T07:10:15;9.40;49.50
76470;DHT22;65305;52.870;13.660;2022-12-11T07:12:41;9.40;49.40
76470;DHT22;65305;52.870;13.660;2022-12-11T07:15:08;9.30;49.50
76470;DHT22;65305;52.870;13.660;2022-12-11T07:17:34;9.30;49.40
76470;DHT22;65305;52.870;13.660;2022-12-11T07:20:01;9.40;49.50
76470;DHT22;65305;52.870;13.660;2022-12-11T07:22:27;9.30;49.30
76470;DHT22;65305;52.870;13.660;2022-12-11T07:24:54;9.30;49.30
76470;DHT22;65305;52.870;13.660;2022-12-11T07:27:20;9.40;49.30
76470;DHT22;65305;52.870;13.660;2022-12-11T07:29:48;9.40;49.40
76470;DHT22;65305;52.870;13.660;2022-12-11T07:32:15;9.30;49.30
76470;DHT22;65305;52.870;13.660;2022-12-11T07:34:41;9.30;49.40
76470;DHT22;65305;52.870;13.660;2022-12-11T07:37:08;9.30;49.40
76470;DHT22;65305;52.870;13.660;2022-12-11T07:39:34;9.30;49.30
76470;DHT22;65305;52.870;13.660;2022-12-11T07:42:01;9.30;49.30
76470;DHT22;65305;52.870;13.660;2022-12-11T07:44:27;9.30;49.30
76470;DHT22;65305;52.870;13.660;2022-12-11T07:46:54;9.30;49.30
76470;DHT22;65305;52.870;13.660;2022-12-11T07:49:21;9.30;49.30
76470;DHT22;65305;52.870;13.660;2022-12-11T07:51:47;9.40;49.30
76470;DHT22;65305;52.870;13.660;2022-12-11T07:54:14;9.30;49.30
76470;DHT22;65305;52.870;13.660;2022-12-11T07:56:44;9.30;49.30
76470;DHT22;65305;52.870;13.660;2022-12-11T07:59:11;9.40;49.30
76470;DHT22;65305;52.870;13.660;2022-12-11T08:01:37;9.40;49.40
76470;DHT22;65305;52.870;13.660;2022-12-11T08:04:05;9.40;49.30
76470;DHT22;65305;52.870;13.660;2022-12-11T08:06:32;9.30;49.40
76470;DHT22;65305;52.870;13.660;2022-12-11T08:09:00;9.30;49.40
76470;DHT22;65305;52.870;13.660;2022-12-11T08:11:26;9.40;49.30
76470;DHT22;65305;52.870;13.660;2022-12-11T08:13:53;9.40;49.30
76470;DHT22;65305;52.870;13.660;2022-12-11T08:16:20;9.40;49.30
76470;DHT22;65305;52.870;13.660;2022-12-11T08:18:47;9.30;49.20
76470;DHT22;65305;52.870;13.660;2022-12-11T08:21:16;9.30;49.30
76470;DHT22;65305;52.870;13.660;2022-12-11T08:23:43;9.30;49.30
76470;DHT22;65305;52.870;13.660;2022-12-11T08:26:21;9.30;49.20
76470;DHT22;65305;52.870;13.660;2022-12-11T08:28:47;9.30;49.30
76470;DHT22;65305;52.870;13.660;2022-12-11T08:31:13;9.30;49.20
76470;DHT22;65305;52.870;13.660;2022-12-11T08:33:40;9.30;49.30
76470;DHT22;65305;52.870;13.660;2022-12-11T08:36:07;9.30;49.30
76470;DHT22;65305;52.870;13.660;2022-12-11T08:38:34;9.30;49.20
76470;DHT22;65305;52.870;13.660;2022-12-11T08:41:09;9.30;49.20
76470;DHT22;65305;52.870;13.660;2022-12-11T08:43:36;9.30;49.20
76470;DHT22;65305;52.870;13.660;2022-12-11T08:46:03;9.30;49.20
76470;DHT22;65305;52.870;13.660;2022-12-11T08:48:30;9.30;49.20
76470;DHT22;65305;52.870;13.660;2022-12-11T08:51:00;9.40;49.20
76470;DHT22;65305;52.870;13.660;2022-12-11T08:53:29;9.30;49.20
76470;DHT22;65305;52.870;13.660;2022-12-11T08:56:02;9.30;49.30
76470;DHT22;65305;52.870;13.660;2022-12-11T08:58:29;9.30;49.10
76470;DHT22;65305;52.870;13.660;2022-12-11T09:00:55;9.30;49.20
76470;DHT22;65305;52.870;13.660;2022-12-11T09:03:22;9.30;49.20
76470;DHT22;65305;52.870;13.660;2022-12-11T09:05:48;9.30;49.10
76470;DHT22;65305;52.870;13.660;2022-12-11T09:08:15;9.30;49.10
76470;DHT22;65305;52.870;13.660;2022-12-11T09:10:41;9.30;49.10
76470;DHT22;65305;52.870;13.660;2022-12-11T09:13:08;9.30;49.10
76470;DHT22;65305;52.870;13.660;2022-12-11T09:15:34;9.30;49.10
76470;DHT22;65305;52.870;13.660;2022-12-11T09:18:00;9.30;49.20
76470;DHT22;65305;52.870;13.660;2022-12-11T09:20:27;9.30;49.10
76470;DHT22;65305;52.870;13.660;2022-12-11T09:22:53;9.30;49.20
76470;DHT22;65305;52.870;13.660;2022-12-11T09:25:19;9.30;49.10
76470;DHT22;65305;52.870;13.660;2022-12-11T09:27:45;9.30;49.10
76470;DHT22;65305;52.870;13.660;2022-12-11T09:30:11;9.30;49.20
76470;DHT22;65305;52.870;13.660;2022-12-11T09:32:38;9.30;49.10
76470;DHT22;65305;52.870;13.660;2022-12-11T09:35:04;9.30;49.20
76470;DHT22;65305;52.870;13.660;2022-12-11T09:37:32;9.30;49.10
76470;DHT22;65305;52.870;13.660;2022-12-11T09:39:58;9.30;49.20
76470;DHT22;65305;52.870;13.660;2022-12-11T09:42:27;9.40;49.10
76470;DHT22;65305;52.870;13.660;2022-12-11T09:44:58;9.30;49.10
76470;DHT22;65305;52.870;13.660;2022-12-11T09:47:36;9.30;49.10
76470;DHT22;65305;52.870;13.660;2022-12-11T09:50:09;9.30;49.10
76470;DHT22;65305;52.870;13.660;2022-12-11T09:52:48;9.30;49.10
76470;DHT22;65305;52.870;13.660;2022-12-11T09:55:19;9.30;49.10
76470;DHT22;65305;52.870;13.660;2022-12-11T10:03:25;9.30;49.00
76470;DHT22;65305;52.870;13.660;2022-12-11T10:13:58;9.30;49.10
76470;DHT22;65305;52.870;13.660;2022-12-11T10:16:38;9.30;49.10
76470;DHT22;65305;52.870;13.660;2022-12-11T10:19:10;9.30;49.10
76470;DHT22;65305;52.870;13.660;2022-12-11T10:21:40;9.30;49.10
76470;DHT22;65305;52.870;13.660;2022-12-11T10:24:13;9.30;49.10
76470;DHT22;65305;52.870;13.660;2022-12-11T10:26:41;9.30;49.00
76470;DHT22;65305;52.870;13.660;2022-12-11T10:29:11;9.30;49.10
76470;DHT22;65305;52.870;13.660;2022-12-11T10:31:43;9.30;49.10
76470;DHT22;65305;52.870;13.660;2022-12-11T10:36:55;9.30;49.00
76470;DHT22;65305;52.870;13.660;2022-12-11T10:39:21;9.30;49.00
76470;DHT22;65305;52.870;13.660;2022-12-11T10:41:49;9.30;49.10
76470;DHT22;65305;52.870;13.660;2022-12-11T10:44:16;9.30;49.10
76470;DHT22;65305;52.870;13.660;2022-12-11T10:46:43;9.30;49.00
76470;DHT22;65305;52.870;13.660;2022-12-11T10:49:26;9.30;49.00
76470;DHT22;65305;52.870;13.660;2022-12-11T10:51:54;9.30;49.10
76470;DHT22;65305;52.870;13.660;2022-12-11T10:54:36;9.30;49.00
76470;DHT22;65305;52.870;13.660;2022-12-11T10:57:03;9.20;49.00
76470;DHT22;65305;52.870;13.660;2022-12-11T11:02:00;9.30;49.00
76470;DHT22;65305;52.870;13.660;2022-12-11T11:04:30;9.30;48.90
76470;DHT22;65305;52.870;13.660;2022-12-11T11:07:30;9.30;49.10
76470;DHT22;65305;52.870;13.660;2022-12-11T11:09:50;9.30;49.00
76470;DHT22;65305;52.870;13.660;2022-12-11T11:12:22;9.30;49.00
76470;DHT22;65305;52.870;13.660;2022-12-11T11:15:04;9.40;48.90
76470;DHT22;65305;52.870;13.660;2022-12-11T11:17:31;9.30;49.00
76470;DHT22;65305;52.870;13.660;2022-12-11T11:19:59;9.30;49.00
76470;DHT22;65305;52.870;13.660;2022-12-11T11:22:26;9.30;49.00
76470;DHT22;65305;52.870;13.660;2022-12-11T11:24:56;9.30;49.00
76470;DHT22;65305;52.870;13.660;2022-12-11T11:29:57;9.30;49.00
76470;DHT22;65305;52.870;13.660;2022-12-11T11:32:37;9.30;49.00
76470;DHT22;65305;52.870;13.660;2022-12-11T11:35:04;9.30;48.90
76470;DHT22;65305;52.870;13.660;2022-12-11T11:37:32;9.30;48.90
76470;DHT22;65305;52.870;13.660;2022-12-11T11:50:46;9.30;48.90
76470;DHT22;65305;52.870;13.660;2022-12-11T11:53:24;9.30;49.00
76470;DHT22;65305;52.870;13.660;2022-12-11T11:58:38;9.40;48.80
76470;DHT22;65305;52.870;13.660;2022-12-11T12:01:17;9.40;48.90
76470;DHT22;65305;52.870;13.660;2022-12-11T12:03:44;9.30;48.90
76470;DHT22;65305;52.870;13.660;2022-12-11T12:08:49;9.30;49.00
76470;DHT22;65305;52.870;13.660;2022-12-11T12:13:48;9.40;48.90
76470;DHT22;65305;52.870;13.660;2022-12-11T12:16:21;9.40;49.00
76470;DHT22;65305;52.870;13.660;2022-12-11T12:18:57;9.40;48.90
76470;DHT22;65305;52.870;13.660;2022-12-11T12:21:35;9.30;48.90
76470;DHT22;65305;52.870;13.660;2022-12-11T12:24:17;9.40;49.00
76470;DHT22;65305;52.870;13.660;2022-12-11T12:26:56;9.40;48.90
76470;DHT22;65305;52.870;13.660;2022-12-11T12:34:39;9.40;48.90
76470;DHT22;65305;52.870;13.660;2022-12-11T12:44:45;9.40;49.00
76470;DHT22;65305;52.870;13.660;2022-12-11T12:47:16;9.40;49.00
76470;DHT22;65305;52.870;13.660;2022-12-11T12:49:47;9.40;49.00
76470;DHT22;65305;52.870;13.660;2022-12-11T12:52:21;9.30;49.00
76470;DHT22;65305;52.870;13.660;2022-12-11T12:54:53;9.40;48.90
76470;DHT22;65305;52.870;13.660;2022-12-11T12:57:48;9.40;48.90
76470;DHT22;65305;52.870;13.660;2022-12-11T13:00:26;9.40;48.80
76470;DHT22;65305;52.870;13.660;2022-12-11T13:02:52;9.40;48.90
76470;DHT22;65305;52.870;13.660;2022-12-11T13:05:24;9.40;48.90
76470;DHT22;65305;52.870;13.660;2022-12-11T13:07:52;9.40;48.90
76470;DHT22;65305;52.870;13.660;2022-12-11T13:10:24;9.40;48.80
76470;DHT22;65305;52.870;13.660;2022-12-11T13:12:52;9.40;48.90
76470;DHT22;65305;52.870;13.660;2022-12-11T13:15:23;9.30;48.80
76470;DHT22;65305;52.870;13.660;2022-12-11T13:17:49;9.40;48.90
76470;DHT22;65305;52.870;13.660;2022-12-11T13:20:17;9.40;48.90
76470;DHT22;65305;52.870;13.660;2022-12-11T13:25:30;9.40;48.80
76470;DHT22;65305;52.870;13.660;2022-12-11T13:28:03;9.40;48.80
76470;DHT22;65305;52.870;13.660;2022-12-11T13:30:30;9.40;48.90
76470;DHT22;65305;52.870;13.660;2022-12-11T13:35:27;9.30;48.70
76470;DHT22;65305;52.870;13.660;2022-12-11T13:37:54;9.40;48.80
76470;DHT22;65305;52.870;13.660;2022-12-11T13:40:26;9.30;48.80
76470;DHT22;65305;52.870;13.660;2022-12-11T13:42:54;9.40;48.80
76470;DHT22;65305;52.870;13.660;2022-12-11T13:48:12;9.40;48.80
76470;DHT22;65305;52.870;13.660;2022-12-11T13:50:42;9.40;48.90
76470;DHT22;65305;52.870;13.660;2022-12-11T13:53:16;9.40;48.80
76470;DHT22;65305;52.870;13.660;2022-12-11T13:55:43;9.40;48.70
76470;DHT22;65305;52.870;13.660;2022-12-11T13:58:17;9.30;48.70
76470;DHT22;65305;52.870;13.660;2022-12-11T14:00:51;9.30;48.70
76470;DHT22;65305;52.870;13.660;2022-12-11T14:03:20;9.40;48.80
76470;DHT22;65305;52.870;13.660;2022-12-11T14:05:47;9.30;48.80
76470;DHT22;65305;52.870;13.660;2022-12-11T14:08:19;9.40;48.80
76470;DHT22;65305;52.870;13.660;2022-12-11T14:10:50;9.30;48.70
76470;DHT22;65305;52.870;13.660;2022-12-11T14:15:46;9.30;48.70
76470;DHT22;65305;52.870;13.660;2022-12-11T14:18:17;9.40;48.70
76470;DHT22;65305;52.870;13.660;2022-12-11T14:20:51;9.40;48.70
76470;DHT22;65305;52.870;13.660;2022-12-11T14:23:20;9.40;48.70
76470;DHT22;65305;52.870;13.660;2022-12-11T14:25:53;9.30;48.80
76470;DHT22;65305;52.870;13.660;2022-12-11T14:28:20;9.40;48.80
76470;DHT22;65305;52.870;13.660;2022-12-11T14:30:51;9.40;48.80
76470;DHT22;65305;52.870;13.660;2022-12-11T14:33:21;9.30;48.70
76470;DHT22;65305;52.870;13.660;2022-12-11T14:35:48;9.40;48.80
76470;DHT22;65305;52.870;13.660;2022-12-11T14:38:17;9.40;48.70
76470;DHT22;65305;52.870;13.660;2022-12-11T14:40:45;9.40;48.70
76470;DHT22;65305;52.870;13.660;2022-12-11T14:43:28;9.40;48.70
76470;DHT22;65305;52.870;13.660;2022-12-11T14:45:59;9.40;48.70
76470;DHT22;65305;52.870;13.660;2022-12-11T14:48:29;9.40;48.80
76470;DHT22;65305;52.870;13.660;2022-12-11T14:50:58;9.40;48.70
76470;DHT22;65305;52.870;13.660;2022-12-11T14:53:34;9.40;48.70
76470;DHT22;65305;52.870;13.660;2022-12-11T14:56:04;9.40;48.70
76470;DHT22;65305;52.870;13.660;2022-12-11T14:58:32;9.40;48.70
76470;DHT22;65305;52.870;13.660;2022-12-11T15:01:00;9.40;48.70
76470;DHT22;65305;52.870;13.660;2022-12-11T15:03:31;9.40;48.70
76470;DHT22;65305;52.870;13.660;2022-12-11T15:05:58;9.40;48.70
76470;DHT22;65305;52.870;13.660;2022-12-11T15:08:26;9.40;48.70
76470;DHT22;65305;52.870;13.660;2022-12-11T15:13:25;9.40;48.70
76470;DHT22;65305;52.870;13.660;2022-12-11T15:15:51;9.40;48.70
76470;DHT22;65305;52.870;13.660;2022-12-11T15:18:20;9.40;48.70
76470;DHT22;65305;52.870;13.660;2022-12-11T15:21:00;9.40;48.70
76470;DHT22;65305;52.870;13.660;2022-12-11T15:23:28;9.40;48.70
76470;DHT22;65305;52.870;13.660;2022-12-11T15:25:55;9.40;48.70
76470;DHT22;65305;52.870;13.660;2022-12-11T15:28:29;9.40;48.70
76470;DHT22;65305;52.870;13.660;2022-12-11T15:30:58;9.40;48.70
76470;DHT22;65305;52.870;13.660;2022-12-11T15:33:25;9.40;48.70
76470;DHT22;65305;52.870;13.660;2022-12-11T15:35:56;9.40;48.70
76470;DHT22;65305;52.870;13.660;2022-12-11T15:40:58;9.40;48.70
76470;DHT22;65305;52.870;13.660;2022-12-11T15:43:25;9.40;48.70
76470;DHT22;65305;52.870;13.660;2022-12-11T15:45:52;9.40;48.70
76470;DHT22;65305;52.870;13.660;2022-12-11T15:48:18;9.40;48.70
76470;DHT22;65305;52.870;13.660;2022-12-11T15:50:45;9.40;48.80
76470;DHT22;65305;52.870;13.660;2022-12-11T15:53:12;9.40;48.70
76470;DHT22;65305;52.870;13.660;2022-12-11T15:55:38;9.40;48.80
76470;DHT22;65305;52.870;13.660;2022-12-11T15:58:06;9.40;48.70
76470;DHT22;65305;52.870;13.660;2022-12-11T16:00:32;9.40;48.70
76470;DHT22;65305;52.870;13.660;2022-12-11T16:02:59;9.40;48.80
76470;DHT22;65305;52.870;13.660;2022-12-11T16:05:25;9.40;48.80
76470;DHT22;65305;52.870;13.660;2022-12-11T16:07:52;9.40;48.70
76470;DHT22;65305;52.870;13.660;2022-12-11T16:10:24;9.40;48.80
76470;DHT22;65305;52.870;13.660;2022-12-11T16:12:51;9.40;48.70
76470;DHT22;65305;52.870;13.660;2022-12-11T16:15:17;9.40;48.80
76470;DHT22;65305;52.870;13.660;2022-12-11T16:17:44;9.40;48.80
76470;DHT22;65305;52.870;13.660;2022-12-11T16:20:10;9.40;48.80
76470;DHT22;65305;52.870;13.660;2022-12-11T16:22:38;9.40;48.80
76470;DHT22;65305;52.870;13.660;2022-12-11T16:25:05;9.40;48.80
76470;DHT22;65305;52.870;13.660;2022-12-11T16:27:31;9.40;49.00
76470;DHT22;65305;52.870;13.660;2022-12-11T16:29:58;9.40;48.80
76470;DHT22;65305;52.870;13.660;2022-12-11T16:32:24;9.40;48.70
76470;DHT22;65305;52.870;13.660;2022-12-11T16:34:51;9.40;48.70
76470;DHT22;65305;52.870;13.660;2022-12-11T16:37:17;9.40;48.70
76470;DHT22;65305;52.870;13.660;2022-12-11T16:39:43;9.40;48.80
76470;DHT22;65305;52.870;13.660;2022-12-11T16:42:11;9.40;48.70
76470;DHT22;65305;52.870;13.660;2022-12-11T16:44:38;9.40;48.80
76470;DHT22;65305;52.870;13.660;2022-12-11T16:47:05;9.40;48.80
76470;DHT22;65305;52.870;13.660;2022-12-11T16:49:31;9.40;48.70
76470;DHT22;65305;52.870;13.660;2022-12-11T16:51:58;9.40;48.80
76470;DHT22;65305;52.870;13.660;2022-12-11T16:54:24;9.40;48.80
76470;DHT22;65305;52.870;13.660;2022-12-11T16:56:51;9.40;48.70
76470;DHT22;65305;52.870;13.660;2022-12-11T16:59:17;9.40;48.80